Hammond, Wisconsin
Current Conditions -  °F | °C
As of 4:55 PM on Monday 24 Nov 2014 (Local Time) from KRNH Reporting Station
Overcast Overcast  
Wind Chill:   Ceiling: 2100
Heat Index: 21°   Visibility: 10mi
Dew Point: 15°   Wind: 18mph
Humidity: 80%   Direction: 310°NW
Pressure: 29.62"   Gusts: 24mph
Location:  44.98°N, 92.44°W
Report Text: KRNH 242255Z AUTO 31016G21KT 10SM OVC021 M06/M09 A2962 RMK AO2 T10621092
Loading
Personal Weather Stations






























Interactive Weather Map New forecast layout! Learn more

10-Day Weather Forecast

Advertisements
Track Severe Weather on mobile